METAR Data
IDs: Format: Raw Decoded Include TAF

Data at: 0752 UTC 11 Dec 2018

PABV 110656Z AUTO 20007KT 10SM OVC110 M06/M07 A2857 RMK AO2 SLP684 T10561067 FZRANO
PABV 110556Z AUTO 21010KT 10SM OVC110 M06/M07 A2860 RMK AO2 SLP694 T10561072 11050 21078 56034 FZRANO
PABV 110456Z AUTO 20007KT 10SM CLR M06/M07 A2863 RMK AO2 SLP702 T10561067 FZRANO
PABV 110356Z AUTO 17004KT 10SM FEW120 M07/M08 A2866 RMK AO2 SLP712 T10671078 FZRANO
PABV 110256Z AUTO 14004KT 10SM CLR M07/M09 A2870 RMK AO2 SLP727 T10721089 58045 FZRANO
PABV 110156Z AUTO 18004KT 10SM CLR M06/M08 A2875 RMK AO2 SLP745 T10611078 FZRANO
PABV 110056Z AUTO 19005KT 10SM BKN120 M06/M08 A2879 RMK AO2 SLP758 T10611078 FZRANO
PABV 102356Z AUTO 20009KT 10SM OVC120 M05/M07 A2883 RMK AO2 SLP773 T10501067 11050 21083 58033 FZRANO
PABV 102256Z AUTO 00000KT 10SM CLR M06/M07 A2887 RMK AO2 SLP783 T10611072 FZRANO
PABV 102156Z AUTO 19004KT 10SM CLR M07/M08 A2890 RMK AO2 SLP795 T10671078 FZRANO
PABV 102056Z AUTO 18003KT 10SM CLR M07/M09 A2893 RMK AO2 SLP805 T10721089 58024 FZRANO
PABV 101956Z AUTO 00000KT 10SM FEW120 M08/M09 A2896 RMK AO2 SLP815 T10831094 FZRANO
PABV 101856Z AUTO 14003KT 10SM OVC110 M07/M08 A2898 RMK AO2 SLP821 T10671083 FZRANO
PABV 101756Z AUTO 20005KT 10SM OVC110 M06/M08 A2900 RMK AO2 SLP829 T10611078 11056 21067 58010 FZRANO
PABV 101656Z AUTO 18004KT 10SM BKN110 M07/M08 A2901 RMK AO2 SLP833 T10671078 FZRANO
PABV 101556Z AUTO 19007KT 10SM BKN120 M06/M08 A2903 RMK AO2 SLP838 T10611078 FZRANO
PABV 101456Z AUTO 18006KT 10SM OVC100 M06/M08 A2903 RMK AO2 SLP840 T10561078 58019 FZRANO
PABV 101356Z AUTO 20009KT 10SM FEW110 M06/M08 A2906 RMK AO2 SLP849 T10611078 FZRANO
PABV 101256Z AUTO 19006KT 10SM CLR M06/M08 A2907 RMK AO2 SLP852 T10611078 FZRANO
PABV 101156Z AUTO 20008KT 10SM CLR M06/M07 A2909 RMK AO2 SLP859 T10561072 11056 21072 56014 FZRANO
PABV 101056Z AUTO 00000KT 10SM BKN120 M06/M08 A2910 RMK AO2 SLP861 T10611078 FZRANO
PABV 100956Z AUTO 00000KT 10SM OVC080 M07/M08 A2912 RMK AO2 SLP868 T10671078 FZRANO
PABV 100856Z AUTO 00000KT 10SM OVC090 M07/M09 A2913 RMK AO2 SLP873 T10721089 58006 FZRANO
PABV 100756Z AUTO 00000KT 10SM OVC090 M06/M07 A2914 RMK AO2 SLP877 T10561072 410061089 FZRANO
PABV 100556Z AUTO 00000KT 10SM FEW120 M07/M09 A2915 RMK AO2 SLP879 60000 T10671089 11044 21089 55002 FZRANO
PABV 100456Z AUTO 00000KT 10SM CLR M05/M08 A2914 RMK AO2 SLP877 T10501078 FZRANO
PABV 100356Z AUTO 05010KT 10SM CLR M06/M07 A2915 RMK AO2 SLP878 T10561072 FZRANO
PABV 100256Z AUTO 05004KT 10SM CLR M08/M09 A2915 RMK AO2 SLP881 60000 T10781089 56009 FZRANO
PABV 100156Z AUTO 07003KT 10SM CLR M07/M08 A2916 RMK AO2 SLP883 T10671083 FZRANO
PABV 100056Z AUTO 12003KT 10SM CLR M07/M10 A2917 RMK AO2 SNB36E47 SLP886 P0000 T10671100 FZRANO
PABV 092356Z AUTO 10003KT 10SM CLR M04/M09 A2918 RMK AO2 SLP890 T10441089 11028 21050 50002 FZRANO
PABV 092256Z AUTO 10003KT 10SM CLR M03/M07 A2919 RMK AO2 SLP892 T10281067 FZRANO
PABV 092156Z AUTO 09004KT 10SM CLR M03/M06 A2918 RMK AO2 SLP890 T10331056 FZRANO
PABV 092056Z AUTO 00000KT 10SM BKN075 M04/M07 A2918 RMK AO2 SLP888 T10441067 51007 FZRANO
PABV 091956Z AUTO 00000KT 10SM OVC080 M04/M07 A2917 RMK AO2 SLP886 T10391067 FZRANO